Time;durP1;ratioP1;P1;durP2;ratioP2;P2;SDS_P1;SDS_P2;PMS_P1;PMS_P2;Temp;Humidity;BMP_temperature;BMP_pressure;BME280_temperature;BME280_humidity;BME280_pressure;Samples;Min_cycle;Max_cycle;Signal;HPM_P1;HPM_P2
2020/12/27 00:01:44;;;;;;;7.22;4.80;;;;;;;-1.62;66.75;99123.84;5082992;28;20324;-54
2020/12/27 00:04:09;;;;;;;6.88;4.88;;;;;;;-1.52;67.01;99126.56;5085382;28;20029;-54
2020/12/27 00:06:35;;;;;;;7.05;5.18;;;;;;;-1.77;67.77;99121.88;5085123;28;20074;-53
2020/12/27 00:09:01;;;;;;;6.78;4.85;;;;;;;-1.68;66.83;99135.56;5068235;28;20096;-53
2020/12/27 00:11:26;;;;;;;8.23;5.68;;;;;;;-1.53;67.08;99135.00;5065366;28;20036;-53
2020/12/27 00:13:52;;;;;;;8.63;5.90;;;;;;;-1.82;67.26;99123.47;5074662;28;20040;-54
2020/12/27 00:16:27;;;;;;;8.98;6.20;;;;;;;-1.90;66.32;99137.69;5077654;28;20595;-54
2020/12/27 00:18:53;;;;;;;9.75;6.65;;;;;;;-1.77;65.57;99139.66;5085279;28;20028;-54
2020/12/27 00:21:19;;;;;;;11.10;6.75;;;;;;;-1.78;66.02;99139.59;5084733;28;20044;-53
2020/12/27 00:23:45;;;;;;;9.57;6.55;;;;;;;-1.71;65.58;99140.56;5085320;28;20070;-53
2020/12/27 00:26:12;;;;;;;12.05;7.88;;;;;;;-1.89;65.59;99148.72;5085075;28;20032;-54
2020/12/27 00:28:38;;;;;;;12.32;7.22;;;;;;;-1.96;64.05;99151.09;5071661;28;20245;-54
2020/12/27 00:31:03;;;;;;;11.73;7.28;;;;;;;-2.01;65.32;99155.25;5078535;28;20028;-54
2020/12/27 00:33:29;;;;;;;11.45;8.05;;;;;;;-1.92;67.20;99165.56;5084454;28;20025;-54
2020/12/27 00:35:54;;;;;;;12.23;7.32;;;;;;;-2.10;65.44;99152.50;5085056;28;20036;-54
2020/12/27 00:38:20;;;;;;;11.40;7.65;;;;;;;-2.12;65.00;99171.94;5084526;28;20036;-54
2020/12/27 00:40:45;;;;;;;12.32;7.05;;;;;;;-2.41;64.11;99164.53;5085387;28;20067;-54
2020/12/27 00:43:11;;;;;;;10.80;7.55;;;;;;;-2.34;66.64;99171.44;5084868;28;20051;-54
2020/12/27 00:45:36;;;;;;;11.02;7.72;;;;;;;-2.32;66.54;99174.88;5084387;28;20059;-54
2020/12/27 00:48:02;;;;;;;9.90;7.47;;;;;;;-2.16;65.20;99173.53;5084547;28;20059;-54
2020/12/27 00:50:28;;;;;;;10.85;7.97;;;;;;;-2.26;65.37;99176.69;5085026;28;20092;-54
2020/12/27 00:52:54;;;;;;;11.75;7.63;;;;;;;-2.33;64.54;99163.00;5084463;28;20025;-54
2020/12/27 00:55:20;;;;;;;11.88;8.05;;;;;;;-2.20;65.15;99178.50;5084876;28;20040;-54
2020/12/27 00:57:46;;;;;;;11.90;8.13;;;;;;;-2.23;64.62;99180.97;5084557;28;20024;-54
2020/12/27 01:00:11;;;;;;;11.77;7.97;;;;;;;-2.19;64.38;99170.94;5083101;28;20137;-54
2020/12/27 01:02:37;;;;;;;11.23;7.63;;;;;;;-2.21;64.72;99179.31;5085021;28;20028;-54
2020/12/27 01:05:03;;;;;;;11.48;7.75;;;;;;;-2.17;64.78;99184.47;5084350;28;20092;-54
2020/12/27 01:07:29;;;;;;;10.52;7.53;;;;;;;-2.40;65.51;99175.53;5084451;28;20040;-54
2020/12/27 01:09:55;;;;;;;10.95;7.72;;;;;;;-2.35;65.52;99197.63;5084633;28;20027;-53
2020/12/27 01:12:20;;;;;;;11.40;7.75;;;;;;;-2.28;64.66;99207.09;5084444;28;20031;-53
2020/12/27 01:14:46;;;;;;;11.73;7.88;;;;;;;-2.29;66.64;99196.91;5083472;28;20024;-53
2020/12/27 01:17:12;;;;;;;13.55;8.38;;;;;;;-2.51;64.21;99210.78;5084510;28;20078;-54
2020/12/27 01:19:37;;;;;;;11.00;7.90;;;;;;;-2.52;65.51;99219.19;5084554;28;20036;-54
2020/12/27 01:22:03;;;;;;;11.93;7.47;;;;;;;-2.51;65.75;99200.63;5083630;28;20106;-54
2020/12/27 01:24:29;;;;;;;10.77;7.47;;;;;;;-2.29;66.14;99227.34;5075647;28;20067;-54
2020/12/27 01:26:54;;;;;;;12.27;7.82;;;;;;;-2.49;65.49;99219.28;5083689;28;20048;-54
2020/12/27 01:29:20;;;;;;;11.00;8.23;;;;;;;-2.60;66.72;99227.47;5084387;28;20063;-54
2020/12/27 01:31:45;;;;;;;10.43;7.47;;;;;;;-2.37;66.09;99233.91;5083219;28;20031;-53
2020/12/27 01:34:11;;;;;;;12.63;8.25;;;;;;;-2.64;66.45;99228.25;5071156;28;20035;-54
2020/12/27 01:36:37;;;;;;;10.70;7.18;;;;;;;-2.55;66.28;99239.41;5076826;28;20031;-54
2020/12/27 01:39:05;;;;;;;11.52;7.72;;;;;;;-2.76;66.80;99197.53;5084203;28;20309;-54
2020/12/27 01:41:31;;;;;;;12.15;7.28;;;;;;;-2.44;66.23;99248.13;5083833;28;20032;-53
2020/12/27 01:43:58;;;;;;;13.38;7.55;;;;;;;-2.45;67.36;99249.81;5083568;28;20091;-53
2020/12/27 01:46:24;;;;;;;10.23;7.28;;;;;;;-2.46;66.84;99257.38;5082320;28;20048;-53
2020/12/27 01:48:49;;;;;;;11.10;7.63;;;;;;;-2.61;67.93;99256.19;5083329;28;20224;-56
2020/12/27 01:51:15;;;;;;;12.20;8.00;;;;;;;-2.60;67.96;99262.09;5083493;28;20036;-53
2020/12/27 01:53:41;;;;;;;11.70;7.85;;;;;;;-2.60;68.23;99265.50;5082108;28;20248;-53
2020/12/27 01:56:11;;;;;;;10.18;7.55;;;;;;;-2.74;68.01;99276.13;5083500;28;20255;-54
2020/12/27 01:58:40;;;;;;;10.87;7.70;;;;;;;-2.61;67.88;99271.41;5083569;28;20020;-54
2020/12/27 02:01:06;;;;;;;11.73;7.82;;;;;;;-2.69;68.58;99275.41;5083158;28;20032;-54
2020/12/27 02:03:31;;;;;;;10.55;7.72;;;;;;;-2.78;69.00;99270.09;5083235;28;20070;-54
2020/12/27 02:05:57;;;;;;;12.10;8.20;;;;;;;-2.74;68.75;99279.50;5083504;28;20024;-53
2020/12/27 02:08:23;;;;;;;11.32;7.80;;;;;;;-2.70;68.56;99281.28;5083621;28;20322;-54
2020/12/27 02:10:49;;;;;;;13.73;8.35;;;;;;;-2.68;69.11;99284.75;5083509;28;20086;-54
2020/12/27 02:13:15;;;;;;;12.93;8.10;;;;;;;-2.85;69.19;99280.91;5083030;28;20033;-54
2020/12/27 02:15:41;;;;;;;13.15;8.32;;;;;;;-2.79;68.90;99288.69;5082418;28;20317;-54
2020/12/27 02:18:06;;;;;;;10.90;8.15;;;;;;;-2.85;69.85;99291.91;5083453;28;20381;-53
2020/12/27 02:20:32;;;;;;;12.07;7.93;;;;;;;-2.81;68.96;99287.75;5083315;28;20093;-54
2020/12/27 02:22:57;;;;;;;12.70;9.00;;;;;;;-2.84;68.96;99293.59;5083033;28;20040;-53
2020/12/27 02:25:23;;;;;;;11.25;8.20;;;;;;;-2.86;69.37;99294.41;5082981;28;20066;-54
2020/12/27 02:27:49;;;;;;;12.95;8.18;;;;;;;-2.77;69.35;99307.28;5070960;28;20253;-53
2020/12/27 02:30:15;;;;;;;12.02;8.13;;;;;;;-2.64;68.79;99305.94;5063275;28;20071;-54
2020/12/27 02:32:40;;;;;;;11.63;8.35;;;;;;;-2.48;68.80;99307.16;5074663;28;20036;-53
2020/12/27 02:35:06;;;;;;;12.77;8.38;;;;;;;-2.72;68.01;99304.88;5072399;28;20108;-54
2020/12/27 02:37:32;;;;;;;15.43;9.00;;;;;;;-2.69;69.27;99304.97;5081944;28;20029;-53
2020/12/27 02:39:57;;;;;;;11.60;8.38;;;;;;;-2.86;68.67;99319.75;5083058;28;20310;-53
2020/12/27 02:42:23;;;;;;;11.35;7.32;;;;;;;-3.11;68.77;99308.94;5083105;28;20034;-53
2020/12/27 02:47:30;;;;;;;13.13;8.57;;;;;;;-2.78;69.90;99320.78;5082183;28;20036;-54
2020/12/27 02:49:56;;;;;;;12.35;8.07;;;;;;;-2.73;68.32;99320.91;5082705;28;20221;-53
2020/12/27 02:52:21;;;;;;;13.43;8.27;;;;;;;-2.79;69.21;99324.16;5082646;28;20071;-55
2020/12/27 02:54:47;;;;;;;13.07;8.93;;;;;;;-2.72;69.48;99326.03;5082522;28;20186;-54
2020/12/27 02:57:13;;;;;;;12.77;8.80;;;;;;;-2.80;69.10;99330.03;5081831;28;20033;-54
2020/12/27 02:59:38;;;;;;;14.73;9.20;;;;;;;-2.72;69.45;99333.63;5082617;28;20024;-53
2020/12/27 03:02:04;;;;;;;13.82;9.13;;;;;;;-2.66;69.45;99343.91;5082217;28;20096;-54
2020/12/27 03:04:29;;;;;;;13.50;9.18;;;;;;;-2.71;68.32;99339.53;5082581;28;20036;-54
2020/12/27 03:06:55;;;;;;;13.90;9.45;;;;;;;-2.89;68.74;99353.44;5082529;28;20056;-54
2020/12/27 03:09:21;;;;;;;14.63;9.23;;;;;;;-2.97;68.71;99350.69;5082616;28;20024;-53
2020/12/27 03:11:46;;;;;;;13.05;8.35;;;;;;;-2.82;69.42;99354.44;5082501;28;20321;-53
2020/12/27 03:14:12;;;;;;;11.25;8.25;;;;;;;-2.81;67.80;99359.59;5081923;28;20021;-54
2020/12/27 03:16:38;;;;;;;13.18;8.30;;;;;;;-2.81;68.21;99362.13;5082378;28;20028;-53
2020/12/27 03:19:04;;;;;;;12.38;8.98;;;;;;;-2.94;68.64;99342.31;5082409;28;20082;-53
2020/12/27 03:21:30;;;;;;;12.60;8.48;;;;;;;-2.85;68.54;99370.44;5082681;28;20033;-54
2020/12/27 03:23:56;;;;;;;12.68;7.63;;;;;;;-2.99;67.83;99366.69;5082226;28;20033;-54
2020/12/27 03:26:21;;;;;;;11.05;8.30;;;;;;;-2.86;68.65;99367.88;5082352;28;20211;-54
2020/12/27 03:28:47;;;;;;;12.45;7.95;;;;;;;-2.97;68.80;99362.50;5082302;28;20040;-54
2020/12/27 03:31:13;;;;;;;12.90;8.38;;;;;;;-3.02;68.82;99359.84;5082507;28;20148;-54
2020/12/27 03:33:38;;;;;;;13.25;7.90;;;;;;;-2.90;68.06;99382.13;5082574;28;20278;-53
2020/12/27 03:36:04;;;;;;;12.73;8.50;;;;;;;-2.71;68.78;99385.16;5074678;28;20020;-53
2020/12/27 03:38:29;;;;;;;11.85;8.05;;;;;;;-2.87;68.30;99391.50;5082364;28;20032;-53
2020/12/27 03:40:55;;;;;;;12.00;8.30;;;;;;;-2.95;67.91;99392.13;5081890;28;20036;-53
2020/12/27 03:43:21;;;;;;;10.88;7.38;;;;;;;-2.99;67.50;99390.31;5082431;28;20033;-52
2020/12/27 03:45:46;;;;;;;12.88;8.55;;;;;;;-3.05;67.29;99380.03;5081516;28;20055;-52
2020/12/27 03:48:12;;;;;;;9.77;7.60;;;;;;;-2.81;67.31;99412.78;5081783;28;20024;-53
2020/12/27 03:50:39;;;;;;;10.77;7.72;;;;;;;-2.80;66.63;99411.09;5082431;28;20304;-53
2020/12/27 03:53:05;;;;;;;11.90;7.85;;;;;;;-3.02;67.52;99407.09;5082190;28;20149;-53
2020/12/27 03:55:31;;;;;;;11.05;8.27;;;;;;;-3.14;67.80;99421.13;5081775;28;20024;-53
2020/12/27 03:57:57;;;;;;;11.57;8.05;;;;;;;-3.12;67.49;99427.09;5082217;28;20051;-53
2020/12/27 04:00:23;;;;;;;14.07;8.63;;;;;;;-3.12;68.48;99431.31;5082097;28;20271;-53
2020/12/27 04:02:49;;;;;;;11.43;8.10;;;;;;;-3.04;68.63;99439.13;5082152;28;20056;-53
2020/12/27 04:05:14;;;;;;;12.45;8.43;;;;;;;-3.23;67.94;99437.75;5081975;28;20074;-53
2020/12/27 04:07:40;;;;;;;10.50;7.47;;;;;;;-3.15;67.65;99454.00;5081701;28;20024;-55
2020/12/27 04:10:06;;;;;;;12.38;7.88;;;;;;;-3.26;69.05;99452.81;5085137;28;20232;-53
2020/12/27 04:12:32;;;;;;;12.80;8.25;;;;;;;-3.19;68.80;99453.06;5085383;28;20095;-54
2020/12/27 04:14:57;;;;;;;12.73;8.55;;;;;;;-3.01;69.19;99455.25;5085701;28;20050;-54
2020/12/27 04:17:23;;;;;;;12.52;8.13;;;;;;;-3.03;68.22;99471.25;5085294;28;20091;-53
2020/12/27 04:19:48;;;;;;;11.68;8.40;;;;;;;-3.09;68.09;99469.41;5085357;28;20328;-53
2020/12/27 04:22:14;;;;;;;13.82;8.40;;;;;;;-3.14;68.66;99471.78;5085738;28;20032;-54
2020/12/27 04:24:40;;;;;;;11.73;8.43;;;;;;;-2.95;67.57;99488.41;5085567;28;20074;-53
2020/12/27 04:27:07;;;;;;;12.88;8.60;;;;;;;-2.92;67.80;99490.16;5085551;28;20032;-53
2020/12/27 04:29:32;;;;;;;12.38;8.70;;;;;;;-2.93;68.14;99490.97;5085582;28;20021;-53
2020/12/27 04:31:58;;;;;;;12.38;8.15;;;;;;;-2.90;68.29;99496.13;5069431;28;20078;-54
2020/12/27 04:34:24;;;;;;;12.98;8.88;;;;;;;-2.82;67.83;99499.75;5065637;28;20025;-53
2020/12/27 04:36:49;;;;;;;12.85;8.32;;;;;;;-3.02;67.13;99503.34;5075503;28;20086;-53
2020/12/27 04:39:15;;;;;;;11.57;7.93;;;;;;;-2.95;67.36;99506.13;5085057;28;20035;-54
2020/12/27 04:41:40;;;;;;;12.32;8.30;;;;;;;-2.71;67.33;99525.38;5085243;28;20067;-54
2020/12/27 04:44:07;;;;;;;12.07;8.00;;;;;;;-2.81;67.42;99526.81;5084844;28;20025;-54
2020/12/27 04:46:33;;;;;;;14.15;8.88;;;;;;;-2.82;66.75;99544.47;5084527;28;20062;-54
2020/12/27 04:49:00;;;;;;;14.32;9.15;;;;;;;-2.92;67.18;99547.56;5085172;28;20389;-53
2020/12/27 04:51:26;;;;;;;12.20;8.57;;;;;;;-2.83;67.42;99552.91;5085046;28;20411;-54
2020/12/27 04:53:55;;;;;;;14.32;9.10;;;;;;;-2.77;66.14;99553.09;5084031;28;20025;-53
2020/12/27 04:56:25;;;;;;;11.32;7.93;;;;;;;-3.23;66.26;99501.06;5079841;28;20016;-53
2020/12/27 04:58:55;;;;;;;12.52;8.82;;;;;;;-2.97;66.29;99557.56;5084712;28;20036;-53
2020/12/27 05:01:21;;;;;;;12.82;8.57;;;;;;;-2.95;66.72;99566.94;5074748;28;20025;-52
2020/12/27 05:03:50;;;;;;;11.98;8.30;;;;;;;-3.17;65.58;99567.91;5064648;28;20028;-53
2020/12/27 05:06:16;;;;;;;11.43;8.25;;;;;;;-3.03;65.92;99575.97;5069866;28;20055;-53
2020/12/27 05:08:45;;;;;;;12.25;7.75;;;;;;;-3.14;64.69;99569.69;5083440;28;20025;-53
2020/12/27 05:11:13;;;;;;;10.90;7.57;;;;;;;-3.62;64.61;99515.00;5084508;28;20073;-54
2020/12/27 05:13:38;;;;;;;11.60;7.07;;;;;;;-3.20;64.95;99588.09;5084373;28;20048;-54
2020/12/27 05:16:04;;;;;;;12.57;8.30;;;;;;;-3.15;66.05;99590.75;5084502;28;20020;-55
2020/12/27 05:18:31;;;;;;;11.60;7.85;;;;;;;-3.09;64.94;99590.97;5084539;28;20033;-53
2020/12/27 05:20:57;;;;;;;12.45;8.25;;;;;;;-3.07;64.22;99601.16;5083576;28;20323;-53
2020/12/27 05:23:26;;;;;;;11.60;8.40;;;;;;;-3.11;64.74;99600.19;5084161;28;20059;-53
2020/12/27 05:25:52;;;;;;;9.35;6.97;;;;;;;-3.33;63.88;99611.28;5084036;28;20186;-53
2020/12/27 05:28:18;;;;;;;11.63;7.50;;;;;;;-3.25;64.03;99614.06;5077211;28;20087;-53
2020/12/27 05:30:44;;;;;;;10.15;7.25;;;;;;;-3.34;64.83;99620.53;5084021;28;20032;-53
2020/12/27 05:33:15;;;;;;;11.95;7.63;;;;;;;-3.65;64.18;99570.56;5084140;28;20066;-53
2020/12/27 05:35:41;;;;;;;11.77;7.55;;;;;;;-3.23;63.80;99646.22;5083577;28;20032;-54
2020/12/27 05:38:08;;;;;;;13.07;8.55;;;;;;;-3.17;64.29;99646.41;5083770;28;20029;-53
2020/12/27 05:40:40;;;;;;;11.23;7.75;;;;;;;-3.16;63.97;99648.16;5083591;28;20025;-54
2020/12/27 05:43:16;;;;;;;10.40;7.60;;;;;;;-3.17;64.78;99645.56;5083831;28;20031;-54
2020/12/27 05:45:43;;;;;;;12.23;8.23;;;;;;;-3.12;65.29;99679.53;5063707;28;20052;-54
2020/12/27 05:48:09;;;;;;;13.30;8.85;;;;;;;-3.02;63.61;99668.88;5083524;28;20091;-55
2020/12/27 05:50:41;;;;;;;13.18;8.32;;;;;;;-3.40;64.30;99620.34;5083800;28;20118;-53
2020/12/27 05:53:15;;;;;;;;;;;;;;;-3.00;64.65;99682.44;5084056;28;20046;-54
2020/12/27 05:55:44;;;;;;;14.85;9.18;;;;;;;-3.34;65.16;99650.91;5083693;28;20189;-54
2020/12/27 05:58:10;;;;;;;12.82;8.10;;;;;;;-3.08;65.08;99704.13;5083497;28;20339;-53
2020/12/27 06:00:36;;;;;;;16.23;9.40;;;;;;;-3.12;65.42;99699.78;5083259;28;20245;-54
2020/12/27 06:03:02;;;;;;;15.13;10.45;;;;;;;-2.96;65.49;99713.81;5083359;28;20084;-53
2020/12/27 06:05:49;;;;;;;12.25;7.95;;;;;;;-3.05;64.11;99724.50;5083331;28;20028;-54
2020/12/27 06:08:27;;;;;;;12.40;8.20;;;;;;;-3.07;64.32;99732.84;5079021;28;20032;-54
2020/12/27 06:10:56;;;;;;;13.35;8.00;;;;;;;-3.55;64.26;99660.31;5080495;28;20039;-53
2020/12/27 06:13:28;;;;;;;12.98;8.43;;;;;;;-3.08;64.89;99742.09;5082806;28;20016;-55
2020/12/27 06:15:58;;;;;;;12.85;8.23;;;;;;;-2.97;64.27;99747.56;5081933;28;20024;-54
2020/12/27 06:18:29;;;;;;;14.55;8.65;;;;;;;-3.11;64.27;99749.59;5080012;28;20335;-54
2020/12/27 06:21:12;;;;;;;14.05;8.38;;;;;;;-3.14;63.91;99754.56;5079962;28;20040;-54
2020/12/27 06:23:38;;;;;;;13.80;8.75;;;;;;;-3.00;64.06;99743.25;5079983;28;20374;-54
2020/12/27 06:26:07;;;;;;;12.05;7.68;;;;;;;-3.06;63.93;99754.84;5070938;28;20336;-53
2020/12/27 06:28:34;;;;;;;11.05;6.63;;;;;;;-3.12;63.06;99752.97;5079034;28;20032;-54
2020/12/27 06:31:07;;;;;;;10.57;6.70;;;;;;;-3.18;63.71;99773.00;5082695;28;20039;-54
2020/12/27 06:33:41;;;;;;;8.13;5.80;;;;;;;-3.19;62.94;99794.06;5081880;28;20217;-53
2020/12/27 06:36:06;;;;;;;8.70;6.55;;;;;;;-3.23;63.07;99769.47;5082849;28;20051;-54
2020/12/27 06:38:33;;;;;;;7.82;5.78;;;;;;;-3.29;62.52;99797.97;5082195;28;20321;-55
2020/12/27 06:41:04;;;;;;;8.73;6.35;;;;;;;-3.36;62.94;99804.47;5082677;28;20035;-54
2020/12/27 06:43:40;;;;;;;7.22;5.57;;;;;;;-3.41;62.52;99816.06;5082533;28;20030;-54
2020/12/27 06:46:20;;;;;;;8.77;6.20;;;;;;;-3.77;63.39;99738.00;5082184;28;20058;-54
2020/12/27 06:48:46;;;;;;;9.15;6.07;;;;;;;-3.35;63.28;99815.44;5079975;28;20311;-54
2020/12/27 06:51:12;;;;;;;6.82;5.43;;;;;;;-3.38;62.88;99818.72;5082451;28;20032;-54
2020/12/27 06:53:43;;;;;;;9.15;6.55;;;;;;;-3.42;64.05;99827.03;5082100;28;20016;-58
2020/12/27 06:56:10;;;;;;;9.50;6.47;;;;;;;-3.26;63.36;99814.91;5079791;28;20025;-54
2020/12/27 06:58:36;;;;;;;11.57;6.38;;;;;;;-3.39;63.28;99827.13;5082627;28;20321;-54
2020/12/27 07:01:16;;;;;;;10.43;6.85;;;;;;;-3.38;64.52;99806.06;5081241;28;20035;-54
2020/12/27 07:03:44;;;;;;;9.02;6.63;;;;;;;-3.53;63.10;99813.09;5082084;28;20082;-54
2020/12/27 07:06:25;;;;;;;9.68;6.60;;;;;;;-3.38;63.45;99846.56;5082108;28;20095;-55
2020/12/27 07:09:02;;;;;;;13.35;7.80;;;;;;;-3.70;65.16;99790.56;5082520;28;20099;-55
2020/12/27 07:11:32;;;;;;;11.98;8.07;;;;;;;-3.21;65.56;99856.47;5082510;28;20070;-55
2020/12/27 07:13:58;;;;;;;14.65;8.30;;;;;;;-3.35;64.62;99841.63;5081700;28;20035;-54
2020/12/27 07:16:41;;;;;;;12.13;7.78;;;;;;;-3.69;64.27;99794.81;5082326;28;20028;-54
2020/12/27 07:19:06;;;;;;;12.20;7.60;;;;;;;-3.28;64.31;99869.72;5082499;28;20043;-53
2020/12/27 07:21:36;;;;;;;10.25;7.63;;;;;;;-3.64;63.85;99802.56;5082363;28;20029;-54
2020/12/27 07:24:14;;;;;;;13.13;7.20;;;;;;;-3.35;64.10;99873.66;5069554;28;20028;-54
2020/12/27 07:26:43;;;;;;;11.02;7.20;;;;;;;-3.21;64.92;99889.38;5077964;28;20223;-54
2020/12/27 07:29:11;;;;;;;11.77;7.53;;;;;;;-3.60;64.11;99818.75;5082323;28;20208;-54
2020/12/27 07:31:39;;;;;;;11.25;7.65;;;;;;;-3.06;65.06;99919.50;5082518;28;20024;-54
2020/12/27 07:34:06;;;;;;;14.00;8.18;;;;;;;-3.07;64.67;99913.56;5082272;28;20020;-53
2020/12/27 07:36:35;;;;;;;10.27;6.95;;;;;;;-3.06;65.49;99916.97;5074128;28;20020;-53
2020/12/27 07:39:07;;;;;;;13.38;7.88;;;;;;;-3.38;65.90;99844.03;5081859;28;20041;-53
2020/12/27 07:41:37;;;;;;;9.30;7.18;;;;;;;-2.99;65.38;99921.44;5079143;28;20039;-54
2020/12/27 07:44:10;;;;;;;10.55;7.15;;;;;;;-3.06;65.65;99915.28;5084109;28;20050;-54
2020/12/27 07:46:36;;;;;;;11.88;7.30;;;;;;;-2.93;65.53;99920.81;5080231;28;20045;-54
2020/12/27 07:49:02;;;;;;;13.02;7.50;;;;;;;-2.77;65.14;99923.94;5085647;28;20069;-54
2020/12/27 07:51:28;;;;;;;13.48;7.53;;;;;;;-2.82;63.86;99927.09;5085726;28;20024;-54
2020/12/27 07:53:57;;;;;;;10.68;6.95;;;;;;;-2.65;64.76;99936.19;5084962;28;20262;-54
2020/12/27 07:56:25;;;;;;;10.77;7.55;;;;;;;-3.00;64.03;99882.56;5078958;28;20025;-54
2020/12/27 07:59:04;;;;;;;10.45;7.05;;;;;;;-2.79;63.87;99972.84;5082396;28;20325;-53
2020/12/27 08:01:32;;;;;;;11.10;7.03;;;;;;;-3.09;64.39;99920.25;5083318;28;20025;-54
2020/12/27 08:04:08;;;;;;;11.13;7.18;;;;;;;-3.08;64.18;99954.88;5085216;28;20036;-54
2020/12/27 08:06:36;;;;;;;12.65;7.47;;;;;;;-2.98;65.02;99974.72;5107306;28;20091;-55
2020/12/27 08:09:06;;;;;;;10.90;7.00;;;;;;;-2.88;64.85;99957.31;5085273;28;20374;-53
2020/12/27 08:11:33;;;;;;;10.48;7.28;;;;;;;-3.39;64.09;99889.53;5085835;28;20194;-54
2020/12/27 08:14:02;;;;;;;11.25;7.32;;;;;;;-3.56;63.80;99899.03;5085709;28;20036;-55
2020/12/27 08:16:28;;;;;;;11.88;7.78;;;;;;;-3.15;64.14;99947.84;5084464;28;20036;-55
2020/12/27 08:19:08;;;;;;;9.77;6.82;;;;;;;-3.57;63.82;99915.88;5085344;28;20039;-54
2020/12/27 08:21:36;;;;;;;13.65;6.60;;;;;;;-3.15;64.64;99975.72;5085439;28;20024;-55
2020/12/27 08:24:06;;;;;;;12.57;8.15;;;;;;;-2.96;64.47;99998.41;5085422;28;20036;-54
2020/12/27 08:26:34;;;;;;;11.00;7.03;;;;;;;-2.83;63.93;99981.16;5084180;28;20028;-54
2020/12/27 08:29:21;;;;;;;12.98;7.70;;;;;;;-3.10;64.27;99913.44;5085241;28;20099;-55
2020/12/27 08:31:49;;;;;;;12.93;7.85;;;;;;;-2.92;63.88;99968.13;5085255;28;20028;-54
2020/12/27 08:34:16;;;;;;;14.85;7.90;;;;;;;-2.91;64.27;99992.66;5085092;28;20058;-56
2020/12/27 08:36:46;;;;;;;11.70;7.63;;;;;;;-3.15;63.89;99976.59;5077083;28;20024;-56
2020/12/27 08:39:17;;;;;;;11.10;7.07;;;;;;;-3.49;63.93;99912.00;5085220;28;20320;-54
2020/12/27 08:41:50;;;;;;;12.67;7.83;;;;;;;-3.08;64.52;99987.81;5085127;28;20028;-55
2020/12/27 08:44:45;;;;;;;12.82;7.93;;;;;;;-2.88;63.82;100005.44;5084874;28;20036;-55
2020/12/27 08:47:38;;;;;;;11.70;7.45;;;;;;;-3.40;63.79;99934.25;5064194;28;20043;-55
2020/12/27 08:50:13;;;;;;;15.70;7.88;;;;;;;-3.42;64.61;99950.19;5078430;28;20036;-54
2020/12/27 08:52:39;;;;;;;12.15;8.00;;;;;;;-2.89;63.75;100023.97;5084416;28;20020;-55
2020/12/27 08:55:09;;;;;;;10.90;7.43;;;;;;;-3.12;64.01;100034.13;5082615;28;20044;-56
2020/12/27 08:57:36;;;;;;;10.98;7.45;;;;;;;-3.12;63.56;100026.50;5081320;28;20025;-56
2020/12/27 09:00:13;;;;;;;11.68;7.10;;;;;;;-3.67;63.71;99966.94;5084334;28;20095;-55
2020/12/27 09:02:40;;;;;;;12.35;7.95;;;;;;;-3.60;64.13;99960.47;5064410;28;20059;-55
2020/12/27 09:05:07;;;;;;;13.65;8.05;;;;;;;-3.49;63.91;99990.47;5082961;28;20032;-55
2020/12/27 09:07:38;;;;;;;12.27;7.93;;;;;;;-3.57;64.36;100001.09;5081115;28;20036;-55
2020/12/27 09:10:08;;;;;;;12.93;7.60;;;;;;;-3.11;64.19;100056.09;5084303;28;20032;-55
2020/12/27 09:12:35;;;;;;;12.43;8.18;;;;;;;-3.12;63.83;100047.63;5084049;28;20024;-53
2020/12/27 09:15:00;;;;;;;15.52;7.78;;;;;;;-2.48;62.30;100055.09;5079796;28;20095;-54
2020/12/27 09:17:30;;;;;;;11.13;7.75;;;;;;;-2.30;61.17;100058.31;5080927;28;20020;-54
2020/12/27 09:19:56;;;;;;;13.00;8.38;;;;;;;-2.28;62.82;100058.34;5083629;28;20028;-54
2020/12/27 09:22:22;;;;;;;11.57;7.63;;;;;;;-2.46;62.55;100064.50;5083802;28;20067;-53
2020/12/27 09:25:21;;;;;;;11.70;7.78;;;;;;;-2.47;62.36;100064.44;5084250;28;20046;-54
2020/12/27 09:27:48;;;;;;;10.07;7.70;;;;;;;-2.41;62.00;100071.41;5062694;28;20079;-55
2020/12/27 09:30:16;;;;;;;12.15;7.95;;;;;;;-3.15;62.23;100013.69;5083854;28;20020;-53
2020/12/27 09:32:42;;;;;;;14.85;7.97;;;;;;;-2.88;63.30;100066.25;5084066;28;20028;-53
2020/12/27 09:35:07;;;;;;;10.48;7.45;;;;;;;-2.66;63.33;100091.63;5083876;28;20051;-54
2020/12/27 09:37:33;;;;;;;14.98;8.73;;;;;;;-2.67;62.64;100083.97;5083907;28;20032;-54
2020/12/27 09:40:01;;;;;;;13.30;8.30;;;;;;;-2.74;62.02;100089.59;5083937;28;20094;-54
2020/12/27 09:42:29;;;;;;;12.43;8.23;;;;;;;-2.62;62.72;100100.22;5083991;28;20028;-54
2020/12/27 09:44:56;;;;;;;11.80;7.90;;;;;;;-2.61;62.47;100105.34;5083735;28;20310;-54
2020/12/27 09:47:28;;;;;;;14.82;8.00;;;;;;;-2.60;63.30;100112.13;5082598;28;20032;-54
2020/12/27 09:49:59;;;;;;;12.25;8.02;;;;;;;-2.62;61.03;100116.28;5083376;28;20029;-54
2020/12/27 09:52:25;;;;;;;14.30;7.93;;;;;;;-2.52;61.28;100119.16;5083300;28;20027;-53
2020/12/27 09:54:50;;;;;;;15.18;8.90;;;;;;;-2.55;61.99;100125.00;5083030;28;20233;-56
2020/12/27 09:57:24;;;;;;;12.98;8.15;;;;;;;-2.61;61.83;100120.56;5081361;28;20025;-54
2020/12/27 09:59:50;;;;;;;14.15;9.02;;;;;;;-2.53;61.39;100120.84;5081262;28;20217;-55
2020/12/27 10:02:17;;;;;;;12.52;7.57;;;;;;;-2.37;61.38;100127.34;5083295;28;20040;-54
2020/12/27 10:04:49;;;;;;;12.95;8.38;;;;;;;-2.63;61.28;100109.47;5083370;28;20024;-55
2020/12/27 10:07:15;;;;;;;13.07;8.52;;;;;;;-2.58;61.69;100129.09;5082521;28;20028;-53
2020/12/27 10:09:41;;;;;;;10.88;7.85;;;;;;;-2.78;61.35;100147.78;5083112;28;20044;-53
2020/12/27 10:12:07;;;;;;;11.20;7.70;;;;;;;-2.84;60.48;100144.13;5082525;28;20028;-54
2020/12/27 10:14:32;;;;;;;11.95;7.47;;;;;;;-2.96;60.69;100145.38;5082893;28;20086;-54
2020/12/27 10:17:00;;;;;;;11.50;8.20;;;;;;;-2.79;61.79;100153.66;5082156;28;20095;-53
2020/12/27 10:19:33;;;;;;;11.90;8.10;;;;;;;-2.58;62.13;100162.88;5083083;28;20032;-54
2020/12/27 10:21:58;;;;;;;10.55;7.32;;;;;;;-2.72;61.71;100167.44;5083106;28;20035;-53
2020/12/27 10:24:28;;;;;;;12.27;7.93;;;;;;;-2.93;61.47;100166.59;5083028;28;20047;-54
2020/12/27 10:26:54;;;;;;;12.10;8.13;;;;;;;-2.98;61.74;100167.25;5080074;28;20043;-54
2020/12/27 10:29:20;;;;;;;10.65;7.28;;;;;;;-2.81;61.10;100184.78;5064439;28;20028;-55
2020/12/27 10:31:54;;;;;;;11.25;7.00;;;;;;;-2.77;61.90;100181.59;5071478;28;20028;-55
2020/12/27 10:34:21;;;;;;;11.25;7.07;;;;;;;-2.77;61.39;100191.72;5079450;28;20024;-54
2020/12/27 10:36:47;;;;;;;11.73;7.43;;;;;;;-2.86;60.95;100192.22;5082581;28;20025;-54
2020/12/27 10:39:14;;;;;;;11.85;8.55;;;;;;;-2.89;61.60;100196.28;5082807;28;20248;-54
2020/12/27 10:41:46;;;;;;;10.77;6.93;;;;;;;-3.01;61.24;100209.31;5082674;28;20024;-55
2020/12/27 10:44:12;;;;;;;10.23;7.03;;;;;;;-3.14;61.33;100211.31;5082811;28;20060;-53
2020/12/27 10:46:38;;;;;;;11.13;7.20;;;;;;;-3.23;62.35;100220.22;5082143;28;20333;-55
2020/12/27 10:49:04;;;;;;;11.88;6.97;;;;;;;-3.03;62.03;100229.53;5082717;28;20068;-55
2020/12/27 10:51:37;;;;;;;9.70;6.40;;;;;;;-3.47;61.11;100231.00;5082426;28;20074;-54
2020/12/27 10:54:03;;;;;;;12.35;7.53;;;;;;;-3.31;62.02;100233.44;5082176;28;20024;-54
2020/12/27 10:56:28;;;;;;;11.32;7.45;;;;;;;-3.27;62.67;100246.22;5082095;28;20031;-54
2020/12/27 10:58:54;;;;;;;9.80;6.40;;;;;;;-3.36;61.49;100239.09;5081613;28;20040;-54
2020/12/27 11:01:20;;;;;;;9.40;6.55;;;;;;;-3.14;62.16;100246.78;5082412;28;20024;-54
2020/12/27 11:03:46;;;;;;;10.63;7.03;;;;;;;-3.28;61.29;100258.00;5082424;28;20310;-53
2020/12/27 11:06:11;;;;;;;11.27;7.55;;;;;;;-3.28;61.36;100260.53;5082400;28;20032;-54
2020/12/27 11:08:37;;;;;;;13.70;7.85;;;;;;;-3.32;60.82;100256.13;5082157;28;20100;-54
2020/12/27 11:11:03;;;;;;;15.38;8.75;;;;;;;-3.35;62.24;100267.00;5082305;28;20040;-56
2020/12/27 11:13:28;;;;;;;15.27;8.88;;;;;;;-3.50;61.09;100268.84;5082108;28;20025;-55
2020/12/27 11:15:54;;;;;;;9.50;7.43;;;;;;;-3.52;62.02;100280.56;5078446;28;20147;-55
2020/12/27 11:18:19;;;;;;;10.63;7.40;;;;;;;-3.41;62.54;100283.59;5081571;28;20025;-54
2020/12/27 11:20:45;;;;;;;11.13;7.40;;;;;;;-3.36;61.44;100287.19;5081781;28;20325;-54
2020/12/27 11:23:11;;;;;;;10.50;7.65;;;;;;;-3.36;61.93;100287.19;5081939;28;20024;-54
2020/12/27 11:25:37;;;;;;;10.38;7.07;;;;;;;-3.28;62.39;100302.72;5082255;28;20032;-53
2020/12/27 11:28:02;;;;;;;11.95;7.15;;;;;;;-3.16;61.75;100288.94;5078545;28;20033;-54
2020/12/27 11:30:28;;;;;;;9.07;6.55;;;;;;;-3.30;60.59;100310.25;5061399;28;20032;-55